Het menu is opgeschoond en ingekort - Le menu a été nettoyé et raccourci
Das Auswahlmenü wurde gereinigt und getrimmt - The menu has been cleaned up and shortened

Klik op de webcam foto voor een grotere versieKlik op de webcam foto voor een grotere versie
Of klik hier voor
de webcam video


Weerstation
Wilsele-Leuven:Website of another weatherstation



Het weer levert geen direct gevaar op.    Er zijn geen waarschuwingen afgegeven.

Nabijgelegen vliegvelden - METAR rapporten

   
EBBR - Vaartkom-Leuven
Gewijzigd: 18-10-2018 04:50
Grotendeels bewolkt    Wind: Noorden 6 km/h
Grotendeels bewolkt
Wind: Wind: Noorden 6 km/h
Temperatuur: 12°C
Dauwpunt: 11°C
Vochtigheid: 94%
Barometer: 1022 hPa
Bewolking: Grotendeels bewolkt
Zicht: meer dan 10 km
Bewolking: Licht bewolkt 701 m,
Grotendeels bewolkt 1158.2 m
EBBR 180250Z 01003KT 350V070 9999 FEW023 BKN038 12/11 Q1022 NOSIG
EBAW - Antwerp
Gewijzigd: 18-10-2018 04:50
Helder    Wind: Noorden 7 km/h
Helder
Wind: Wind: Noorden 7 km/h
Temperatuur: 12°C
Dauwpunt: 10°C
Vochtigheid: 88%
Barometer: 1023 hPa
Bewolking: Helder
Zicht: 8 km
Bewolking: Helder
EBAW 180250Z AUTO 36004KT 8000 // NCD 12/10 Q1023
EBLG - Liège
Gewijzigd: 18-10-2018 04:50
Nevel, Grotendeels bewolkt    Wind: Noorden 7 km/h
Nevel, Grotendeels bewolkt
Wind: Wind: Noorden 7 km/h
Temperatuur: 12°C
Dauwpunt: 12°C
Vochtigheid: 100%
Barometer: 1022 hPa
Bewolking: Grotendeels bewolkt
Zicht: 4 km
Bewolking: Grotendeels bewolkt 365.8 m
EBLG 180250Z 35004KT 3500 BR BKN012 12/12 Q1022 NOSIG
EBCV - Mons/Bergen
Gewijzigd: 18-10-2018 04:55
Nevel, Licht bewolkt    Wind: NNO 6 km/h
Nevel, Licht bewolkt
Wind: Wind: NNO 6 km/h
Temperatuur: 11°C
Dauwpunt: 10°C
Vochtigheid: 94%
Barometer: 1023 hPa
Bewolking: Licht bewolkt
Zicht: 5 km
Bewolking: Licht bewolkt 1036.3 m
EBCV 180255Z AUTO 02003KT 4500 BR FEW034/// 11/10 Q1023 GRN
EHBK - Maastricht
Gewijzigd: 18-10-2018 04:55
Bewolking    Wind: Noorden 9 km/h
Bewolking
Wind: Wind: Noorden 9 km/h
Temperatuur: 13°C
Dauwpunt: 12°C
Vochtigheid: 94%
Barometer: 1022 hPa
Bewolking: Bewolking
Zicht: 6 km
Bewolking: Gedeeltelijk bewolkt 396.2 m,
Grotendeels bewolkt 457.2 m,
Bewolking 914.4 m
EHBK 180255Z AUTO 36005KT 330V030 6000 SCT013 BKN015 OVC030 13/12 Q1022
ELLX - Luxemburg
Gewijzigd: 18-10-2018 04:50
Nevel, Gedeeltelijk bewolkt    Wind: NO 19 km/h
Nevel, Gedeeltelijk bewolkt
Wind: Wind: NO 19 km/h
Temperatuur: 14°C
Dauwpunt: 11°C
Vochtigheid: 82%
Barometer: 1019 hPa
Bewolking: Gedeeltelijk bewolkt
Zicht: 4 km
Bewolking: Gedeeltelijk bewolkt
ELLX 180250Z 04010KT 4000 HZ NSC 14/11 Q1019 NOSIG
EBOS - Oostende
Gewijzigd: 18-10-2018 04:50
Grotendeels bewolkt    Wind: NNO 9 km/h
Grotendeels bewolkt
Wind: Wind: NNO 9 km/h
Temperatuur: 13°C
Dauwpunt: 11°C
Vochtigheid: 88%
Barometer: 1023 hPa
Bewolking: Grotendeels bewolkt
Zicht: meer dan 10 km
Bewolking: Grotendeels bewolkt 365.8 m,
Grotendeels bewolkt 975.4 m
EBOS 180250Z 02005KT 9999 BKN012 BKN032 13/11 Q1023 TEMPO BKN009
  

Script ontwikkeld door  Saratoga-weather.org Aangepast voor de template door  Weerstation Leuven

U vindt ons ook hier:

UK Metoffice

WeatherCloud

European Weather Network

Weather Underground

Bernelux Weather Network

AWEKAS

WeatherlinkIP

Citizen Weather Observer Program (CWOP)

HAMweather, WeatherForYou, PWS Weather

Apparatuur in gebruik:

Weer-station
Davis VUE

Weer-programma
Meteobridge

Webleverancier
Robohost

Davis VUE

Meteobridge

Robohost